createdAt,value
2022-12-03T00:01:17.490Z,96799.44
2022-12-03T00:03:48.093Z,96812.72
2022-12-03T00:06:17.571Z,96814.13
2022-12-03T00:08:46.303Z,96800.72
2022-12-03T00:11:24.213Z,96807.13
2022-12-03T00:13:54.286Z,96801.00
2022-12-03T00:16:22.993Z,96799.47
2022-12-03T00:18:52.808Z,96806.78
2022-12-03T00:21:29.125Z,96803.78
2022-12-03T00:23:59.843Z,96805.13
2022-12-03T00:26:28.757Z,96803.00
2022-12-03T00:29:00.744Z,96797.91
2022-12-03T00:31:46.618Z,96795.34
2022-12-03T00:34:15.182Z,96804.81
2022-12-03T00:36:43.653Z,96801.22
2022-12-03T00:39:25.509Z,96806.09
2022-12-03T00:42:04.157Z,96803.09
2022-12-03T00:44:41.229Z,96803.56
2022-12-03T00:47:09.983Z,96812.03
2022-12-03T00:49:38.660Z,96815.03
2022-12-03T00:52:07.274Z,96811.91
2022-12-03T00:54:35.973Z,96807.88
2022-12-03T00:57:11.686Z,96805.50
2022-12-03T00:59:42.735Z,96805.81
2022-12-03T01:02:11.315Z,96808.31
2022-12-03T01:04:39.919Z,96815.78
2022-12-03T01:07:09.010Z,96805.94
2022-12-03T01:09:37.570Z,96817.69
2022-12-03T01:12:06.465Z,96814.66
2022-12-03T01:14:35.060Z,96809.22
2022-12-03T01:17:07.106Z,96810.38
2022-12-03T01:19:36.344Z,96815.88
2022-12-03T01:22:08.011Z,96814.78
2022-12-03T01:24:42.679Z,96811.50
2022-12-03T01:27:10.923Z,96814.06
2022-12-03T01:29:39.266Z,96817.88
2022-12-03T01:32:16.965Z,96815.56
2022-12-03T01:34:50.835Z,96815.56
2022-12-03T01:37:22.617Z,96813.50
2022-12-03T01:39:53.822Z,96816.97
2022-12-03T01:42:27.510Z,96808.94
2022-12-03T01:44:59.860Z,96810.34
2022-12-03T01:47:39.180Z,96808.22
2022-12-03T01:50:14.062Z,96808.31
2022-12-03T01:52:43.584Z,96806.94
2022-12-03T01:55:17.912Z,96819.09
2022-12-03T01:57:49.130Z,96800.97
2022-12-03T02:00:20.304Z,96824.25
2022-12-03T02:02:55.527Z,96816.47
2022-12-03T02:05:27.263Z,96811.09
2022-12-03T02:07:56.537Z,96807.16
2022-12-03T02:10:39.366Z,96812.94
2022-12-03T02:13:10.332Z,96816.72
2022-12-03T02:15:45.715Z,96827.00
2022-12-03T02:18:15.470Z,96826.63
2022-12-03T02:20:54.600Z,96825.81
2022-12-03T02:23:33.990Z,96808.69
2022-12-03T02:26:23.363Z,96818.59
2022-12-03T02:28:51.787Z,96823.84
2022-12-03T02:31:20.235Z,96821.53
2022-12-03T02:33:48.531Z,96827.16
2022-12-03T02:36:17.334Z,96825.56
2022-12-03T02:38:47.387Z,96829.75
2022-12-03T02:41:34.194Z,96824.31
2022-12-03T02:44:04.693Z,96813.66
2022-12-03T02:46:33.264Z,96818.44
2022-12-03T02:49:02.345Z,96813.56
2022-12-03T02:51:30.780Z,96833.69
2022-12-03T02:53:59.577Z,96831.72
2022-12-03T02:56:35.195Z,96829.84
2022-12-03T02:59:06.695Z,96834.31
2022-12-03T03:01:36.181Z,96833.56
2022-12-03T03:04:15.659Z,96839.22
2022-12-03T03:06:43.966Z,96845.88
2022-12-03T03:09:12.269Z,96837.41
2022-12-03T03:11:42.658Z,96840.53
2022-12-03T03:14:12.325Z,96827.59
2022-12-03T03:16:40.785Z,96813.47
2022-12-03T03:19:09.460Z,96814.72
2022-12-03T03:21:37.675Z,96822.72
2022-12-03T03:24:07.314Z,96818.31
2022-12-03T03:26:35.554Z,96820.03
2022-12-03T03:29:13.006Z,96819.19
2022-12-03T03:31:42.378Z,96815.88
2022-12-03T03:34:19.933Z,96832.25
2022-12-03T03:36:48.478Z,96833.53
2022-12-03T03:39:16.726Z,96829.16
2022-12-03T03:41:46.958Z,96840.09
2022-12-03T03:44:16.612Z,96838.03
2022-12-03T03:46:45.891Z,96833.22
2022-12-03T03:49:14.489Z,96825.97
2022-12-03T03:51:42.890Z,96823.28
2022-12-03T03:54:20.239Z,96821.47
2022-12-03T03:56:48.570Z,96828.03
2022-12-03T03:59:24.389Z,96820.69
2022-12-03T04:01:53.145Z,96819.28
2022-12-03T04:04:24.302Z,96814.31
2022-12-03T04:06:52.578Z,96818.59
2022-12-03T04:09:27.758Z,96805.59
2022-12-03T04:12:13.666Z,96810.19
2022-12-03T04:14:43.255Z,96815.31
2022-12-03T04:17:11.419Z,96826.69
2022-12-03T04:19:42.807Z,96826.25
2022-12-03T04:22:28.649Z,96825.44
2022-12-03T04:25:17.182Z,96824.50
2022-12-03T04:28:14.779Z,96813.59
2022-12-03T04:30:44.682Z,96822.97
2022-12-03T04:33:30.559Z,96825.50
2022-12-03T04:35:59.124Z,96823.47
2022-12-03T04:38:45.445Z,96830.66
2022-12-03T04:41:13.635Z,96816.47
2022-12-03T04:43:55.713Z,96829.81
2022-12-03T04:46:25.406Z,96821.47
2022-12-03T04:48:53.635Z,96818.44
2022-12-03T04:51:21.878Z,96817.69
2022-12-03T04:53:50.065Z,96820.28
2022-12-03T04:56:18.323Z,96819.97
2022-12-03T04:59:00.806Z,96829.44
2022-12-03T05:01:30.593Z,96832.59
2022-12-03T05:04:10.429Z,96831.31
2022-12-03T05:06:38.707Z,96827.81
2022-12-03T05:09:07.246Z,96831.19
2022-12-03T05:11:35.775Z,96830.94
2022-12-03T05:14:04.050Z,96835.22
2022-12-03T05:16:34.392Z,96835.78
2022-12-03T05:19:02.847Z,96829.66
2022-12-03T05:21:31.157Z,96838.50
2022-12-03T05:23:59.577Z,96839.63
2022-12-03T05:26:27.986Z,96831.38
2022-12-03T05:28:56.346Z,96828.56
2022-12-03T05:31:40.238Z,96820.16
2022-12-03T05:34:08.432Z,96815.88
2022-12-03T05:36:36.696Z,96817.38
2022-12-03T05:39:14.734Z,96817.16
2022-12-03T05:42:00.298Z,96811.84
2022-12-03T05:44:28.744Z,96818.47
2022-12-03T05:46:58.363Z,96820.88
2022-12-03T05:49:26.554Z,96820.19
2022-12-03T05:51:58.438Z,96821.09
2022-12-03T05:54:27.182Z,96818.56
2022-12-03T05:56:59.332Z,96822.00
2022-12-03T05:59:27.562Z,96819.28
2022-12-03T06:01:57.285Z,96828.56
2022-12-03T06:04:28.462Z,96830.41
2022-12-03T06:07:07.433Z,96816.47
2022-12-03T06:09:49.059Z,96818.22
2022-12-03T06:12:17.292Z,96809.63
2022-12-03T06:14:45.515Z,96806.09
2022-12-03T06:17:15.114Z,96810.56
2022-12-03T06:19:43.305Z,96812.88
2022-12-03T06:22:11.502Z,96813.22
2022-12-03T06:24:39.764Z,96824.75
2022-12-03T06:27:08.071Z,96810.50
2022-12-03T06:29:36.490Z,96813.03
2022-12-03T06:32:04.890Z,96806.06
2022-12-03T06:34:44.404Z,96800.91
2022-12-03T06:37:14.655Z,96810.28
2022-12-03T06:39:44.466Z,96809.81
2022-12-03T06:42:12.720Z,96808.31
2022-12-03T06:44:41.210Z,96799.88
2022-12-03T06:47:09.441Z,96797.75
2022-12-03T06:49:50.301Z,96793.69
2022-12-03T06:52:18.467Z,96803.72
2022-12-03T06:54:46.770Z,96805.88
2022-12-03T06:57:15.168Z,96810.03
2022-12-03T06:59:43.382Z,96805.84
2022-12-03T07:02:12.323Z,96796.41
2022-12-03T07:04:44.826Z,96805.94
2022-12-03T07:07:16.046Z,96808.66
2022-12-03T07:09:44.384Z,96818.88
2022-12-03T07:12:12.549Z,96812.00
2022-12-03T07:14:40.739Z,96816.69
2022-12-03T07:17:08.947Z,96809.59
2022-12-03T07:19:42.008Z,96817.59
2022-12-03T07:22:12.377Z,96825.56
2022-12-03T07:24:43.010Z,96812.16
2022-12-03T07:27:11.282Z,96810.66
2022-12-03T07:29:41.531Z,96810.47
2022-12-03T07:32:09.787Z,96806.88
2022-12-03T07:34:38.187Z,96811.91
2022-12-03T07:37:06.395Z,96808.75
2022-12-03T07:39:54.503Z,96799.38
2022-12-03T07:42:22.870Z,96809.19
2022-12-03T07:44:51.556Z,96785.81
2022-12-03T07:47:20.004Z,96785.44
2022-12-03T07:49:48.266Z,96791.72
2022-12-03T07:52:27.324Z,96781.97
2022-12-03T07:54:57.975Z,96794.97
2022-12-03T07:57:26.273Z,96789.91
2022-12-03T07:59:54.602Z,96784.41
2022-12-03T08:02:23.253Z,96796.44
2022-12-03T08:04:59.882Z,96793.09
2022-12-03T08:07:29.287Z,96794.66
2022-12-03T08:10:00.741Z,96798.38
2022-12-03T08:12:41.170Z,96792.13
2022-12-03T08:15:20.359Z,96802.66
2022-12-03T08:18:01.318Z,96799.47
2022-12-03T08:20:34.222Z,96807.75
2022-12-03T08:23:12.015Z,96821.72
2022-12-03T08:25:46.852Z,96817.84
2022-12-03T08:28:20.362Z,96802.53
2022-12-03T08:31:18.523Z,96828.63
2022-12-03T08:33:51.189Z,96807.41
2022-12-03T08:36:31.473Z,96814.94
2022-12-03T08:39:14.073Z,96814.31
2022-12-03T08:42:01.478Z,96805.41
2022-12-03T08:44:35.373Z,96809.50
2022-12-03T08:47:14.974Z,96802.38
2022-12-03T08:49:47.267Z,96800.56
2022-12-03T08:52:22.178Z,96792.38
2022-12-03T08:54:57.732Z,96800.41
2022-12-03T08:57:31.922Z,96804.25
2022-12-03T09:00:07.834Z,96803.47
2022-12-03T09:02:36.314Z,96800.34
2022-12-03T09:05:18.262Z,96800.66
2022-12-03T09:07:46.485Z,96787.94
2022-12-03T09:10:14.722Z,96787.56
2022-12-03T09:12:44.380Z,96785.44
2022-12-03T09:15:13.073Z,96796.25
2022-12-03T09:17:41.294Z,96795.19
2022-12-03T09:20:10.629Z,96789.84
2022-12-03T09:22:38.853Z,96794.19
2022-12-03T09:25:08.409Z,96791.88
2022-12-03T09:27:36.740Z,96796.44
2022-12-03T09:30:08.066Z,96801.09
2022-12-03T09:32:40.623Z,96798.28
2022-12-03T09:35:10.710Z,96793.53
2022-12-03T09:37:38.910Z,96795.66
2022-12-03T09:40:09.119Z,96791.47
2022-12-03T09:42:37.888Z,96796.88
2022-12-03T09:45:12.827Z,96781.84
2022-12-03T09:47:44.963Z,96786.75
2022-12-03T09:50:15.744Z,96784.31
2022-12-03T09:52:45.163Z,96779.97
2022-12-03T09:55:18.467Z,96777.91
2022-12-03T09:57:46.852Z,96772.88
2022-12-03T10:00:20.793Z,96761.22
2022-12-03T10:02:50.995Z,96754.22
2022-12-03T10:05:21.479Z,96753.44
2022-12-03T10:07:51.086Z,96759.09
2022-12-03T10:10:22.667Z,96753.69
2022-12-03T10:12:52.486Z,96754.56
2022-12-03T10:15:24.482Z,96747.53
2022-12-03T10:17:55.952Z,96755.34
2022-12-03T10:20:26.423Z,96752.97
2022-12-03T10:22:54.828Z,96746.66
2022-12-03T10:25:24.774Z,96738.53
2022-12-03T10:28:01.559Z,96735.53
2022-12-03T10:30:31.542Z,96725.97
2022-12-03T10:33:02.642Z,96722.13
2022-12-03T10:35:41.075Z,96724.28
2022-12-03T10:38:22.198Z,96725.25
2022-12-03T10:40:50.939Z,96727.59
2022-12-03T10:43:24.872Z,96726.13
2022-12-03T10:46:15.670Z,96725.63
2022-12-03T10:48:43.993Z,96715.50
2022-12-03T10:51:20.844Z,96703.56
2022-12-03T10:53:50.981Z,96697.59
2022-12-03T10:56:26.401Z,96687.63
2022-12-03T10:58:55.257Z,96688.38
2022-12-03T11:01:27.042Z,96690.13
2022-12-03T11:04:06.068Z,96682.13
2022-12-03T11:06:41.730Z,96677.63
2022-12-03T11:09:20.619Z,96683.97
2022-12-03T11:11:49.653Z,96671.94
2022-12-03T11:15:07.126Z,96678.00
2022-12-03T11:17:53.862Z,96670.88
2022-12-03T11:21:11.244Z,96673.56
2022-12-03T11:24:27.053Z,96665.94
2022-12-03T11:27:21.742Z,96666.97
2022-12-03T11:30:00.988Z,96664.28
2022-12-03T11:33:23.574Z,96668.22
2022-12-03T11:36:16.652Z,96664.25
2022-12-03T11:38:53.293Z,96666.47
2022-12-03T11:41:26.325Z,96647.72
2022-12-03T11:44:32.975Z,96643.03
2022-12-03T11:47:14.059Z,96650.25
2022-12-03T11:49:50.774Z,96644.06
2022-12-03T11:52:29.921Z,96652.38
2022-12-03T11:55:05.596Z,96645.97
2022-12-03T11:57:38.685Z,96651.22
2022-12-03T12:00:18.540Z,96641.03
2022-12-03T12:02:48.118Z,96638.91
2022-12-03T12:05:25.663Z,96636.56
2022-12-03T12:07:54.774Z,96625.19
2022-12-03T12:10:45.905Z,96619.44
2022-12-03T12:13:52.007Z,96615.03
2022-12-03T12:16:51.269Z,96634.22
2022-12-03T12:19:41.424Z,96616.09
2022-12-03T12:22:32.921Z,96622.66
2022-12-03T12:25:02.780Z,96621.66
2022-12-03T12:27:45.529Z,96610.66
2022-12-03T12:30:16.924Z,96610.41
2022-12-03T12:32:47.856Z,96604.31
2022-12-03T12:35:19.821Z,96617.47
2022-12-03T12:37:59.042Z,96606.84
2022-12-03T12:40:32.045Z,96605.41
2022-12-03T12:43:08.478Z,96601.75
2022-12-03T12:45:43.349Z,96595.13
2022-12-03T12:48:26.175Z,96591.28
2022-12-03T12:51:01.674Z,96588.94
2022-12-03T12:53:37.716Z,96584.22
2022-12-03T12:56:30.051Z,96583.66
2022-12-03T12:59:00.381Z,96586.84
2022-12-03T13:01:32.441Z,96592.34
2022-12-03T13:04:02.230Z,96593.84
2022-12-03T13:06:33.392Z,96576.63
2022-12-03T13:09:14.911Z,96573.41
2022-12-03T13:11:46.473Z,96582.88
2022-12-03T13:14:20.594Z,96585.00
2022-12-03T13:16:50.720Z,96572.94
2022-12-03T13:19:24.813Z,96572.59
2022-12-03T13:21:55.379Z,96575.06
2022-12-03T13:24:33.657Z,96572.69
2022-12-03T13:27:08.963Z,96571.88
2022-12-03T13:29:37.247Z,96559.91
2022-12-03T13:32:16.140Z,96559.59
2022-12-03T13:34:45.326Z,96563.81
2022-12-03T13:37:17.441Z,96559.59
2022-12-03T13:39:49.620Z,96565.50
2022-12-03T13:42:42.199Z,96560.34
2022-12-03T13:45:33.374Z,96567.16
2022-12-03T13:48:05.043Z,96577.63
2022-12-03T13:50:37.685Z,96575.88
2022-12-03T13:53:22.060Z,96561.94
2022-12-03T13:55:55.259Z,96567.59
2022-12-03T13:58:23.594Z,96562.59
2022-12-03T14:00:51.904Z,96565.72
2022-12-03T14:03:20.192Z,96560.38
2022-12-03T14:05:48.415Z,96564.34
2022-12-03T14:08:16.674Z,96565.16
2022-12-03T14:10:45.113Z,96559.81
2022-12-03T14:13:14.820Z,96555.16
2022-12-03T14:15:44.030Z,96560.38
2022-12-03T14:18:12.209Z,96565.63
2022-12-03T14:20:40.404Z,96562.47
2022-12-03T14:23:08.572Z,96558.81
2022-12-03T14:25:36.950Z,96561.47
2022-12-03T14:28:08.542Z,96563.97
2022-12-03T14:30:38.302Z,96566.78
2022-12-03T14:33:06.626Z,96565.25
2022-12-03T14:35:34.855Z,96567.41
2022-12-03T14:38:03.101Z,96563.91
2022-12-03T14:40:31.255Z,96563.22
2022-12-03T14:42:59.468Z,96566.22
2022-12-03T14:45:28.754Z,96571.09
2022-12-03T14:47:58.372Z,96571.16
2022-12-03T14:50:28.707Z,96564.75
2022-12-03T14:53:01.030Z,96571.88
2022-12-03T14:55:31.262Z,96571.66
2022-12-03T14:57:59.681Z,96566.06
2022-12-03T15:00:27.851Z,96571.63
2022-12-03T15:03:03.422Z,96571.03
2022-12-03T15:05:31.635Z,96568.50
2022-12-03T15:08:09.523Z,96563.16
2022-12-03T15:10:48.366Z,96566.91
2022-12-03T15:13:17.591Z,96572.66
2022-12-03T15:15:46.169Z,96573.25
2022-12-03T15:18:22.342Z,96575.34
2022-12-03T15:20:53.635Z,96576.53
2022-12-03T15:23:22.142Z,96581.66
2022-12-03T15:25:51.752Z,96584.34
2022-12-03T15:28:29.737Z,96575.59
2022-12-03T15:30:58.030Z,96584.81
2022-12-03T15:33:27.794Z,96587.59
2022-12-03T15:35:56.122Z,96586.31
2022-12-03T15:38:24.360Z,96574.88
2022-12-03T15:44:18.879Z,96577.22
2022-12-03T15:46:47.272Z,96574.19
2022-12-03T15:49:15.707Z,96578.81
2022-12-03T15:51:44.287Z,96584.72
2022-12-03T15:54:13.518Z,96585.13
2022-12-03T15:56:41.872Z,96579.66
2022-12-03T15:59:10.219Z,96584.63
2022-12-03T16:01:39.934Z,96585.81
2022-12-03T16:04:08.259Z,96585.72
2022-12-03T16:06:36.541Z,96583.22
2022-12-03T16:09:05.017Z,96592.41
2022-12-03T16:11:33.281Z,96577.31
2022-12-03T16:14:01.816Z,96566.50
2022-12-03T16:16:30.120Z,96575.16
2022-12-03T16:18:59.853Z,96573.38
2022-12-03T16:21:28.258Z,96561.47
2022-12-03T16:23:57.010Z,96567.53
2022-12-03T16:26:25.362Z,96569.44
2022-12-03T16:28:54.039Z,96564.53
2022-12-03T16:31:22.372Z,96561.81
2022-12-03T16:33:50.991Z,96560.72
2022-12-03T16:36:20.746Z,96558.94
2022-12-03T16:38:48.990Z,96554.78
2022-12-03T16:41:17.341Z,96549.59
2022-12-03T16:43:48.456Z,96558.09
2022-12-03T16:46:26.200Z,96544.06
2022-12-03T16:48:56.461Z,96547.69
2022-12-03T16:51:27.579Z,96549.91
2022-12-03T16:53:56.139Z,96548.03
2022-12-03T16:56:24.506Z,96548.03
2022-12-03T16:58:52.818Z,96542.28
2022-12-03T17:01:21.189Z,96549.16
2022-12-03T17:03:49.539Z,96542.50
2022-12-03T17:06:18.004Z,96542.94
2022-12-03T17:08:49.855Z,96547.53
2022-12-03T17:11:19.015Z,96538.06
2022-12-03T17:13:47.650Z,96543.50
2022-12-03T17:16:16.047Z,96544.50
2022-12-03T17:18:45.412Z,96530.22
2022-12-03T17:21:13.786Z,96527.84
2022-12-03T17:23:45.382Z,96524.47
2022-12-03T17:26:15.158Z,96521.66
2022-12-03T17:28:43.497Z,96535.53
2022-12-03T17:31:12.512Z,96544.25
2022-12-03T17:33:43.079Z,96542.09
2022-12-03T17:36:12.044Z,96530.59
2022-12-03T17:38:40.535Z,96527.16
2022-12-03T17:41:09.122Z,96524.47
2022-12-03T17:43:38.869Z,96535.06
2022-12-03T17:46:07.655Z,96528.41
2022-12-03T17:48:36.370Z,96528.81
2022-12-03T17:51:05.015Z,96501.97
2022-12-03T17:53:33.326Z,96516.91
2022-12-03T17:56:01.589Z,96510.91
2022-12-03T17:58:29.999Z,96506.44
2022-12-03T18:01:02.791Z,96509.72
2022-12-03T18:03:31.867Z,96510.19
2022-12-03T18:06:00.253Z,96504.78
2022-12-03T18:08:29.915Z,96494.81
2022-12-03T18:10:58.415Z,96508.97
2022-12-03T18:13:27.098Z,96508.16
2022-12-03T18:15:55.615Z,96493.91
2022-12-03T18:18:25.307Z,96506.31
2022-12-03T18:20:54.435Z,96513.03
2022-12-03T18:23:22.799Z,96514.56
2022-12-03T18:25:51.158Z,96520.41
2022-12-03T18:28:19.977Z,96512.03
2022-12-03T18:30:52.426Z,96516.78
2022-12-03T18:33:23.312Z,96521.59
2022-12-03T18:35:56.729Z,96514.22
2022-12-03T18:38:29.081Z,96522.88
2022-12-03T18:40:58.329Z,96516.94
2022-12-03T18:43:29.035Z,96504.53
2022-12-03T18:45:57.812Z,96500.72
2022-12-03T18:48:26.608Z,96502.25
2022-12-03T18:50:56.510Z,96511.06
2022-12-03T18:53:24.868Z,96515.97
2022-12-03T18:55:53.221Z,96509.63
2022-12-03T18:58:21.572Z,96492.25
2022-12-03T19:00:50.402Z,96500.94
2022-12-03T19:03:18.894Z,96492.47
2022-12-03T19:05:47.342Z,96493.16
2022-12-03T19:08:19.104Z,96485.59
2022-12-03T19:10:56.716Z,96506.16
2022-12-03T19:13:27.147Z,96491.19
2022-12-03T19:15:56.270Z,96491.94
2022-12-03T19:18:25.565Z,96491.44
2022-12-03T19:20:54.310Z,96498.69
2022-12-03T19:23:24.087Z,96490.38
2022-12-03T19:26:00.608Z,96498.97
2022-12-03T19:28:30.164Z,96500.69
2022-12-03T19:31:00.429Z,96491.81
2022-12-03T19:33:29.720Z,96482.28
2022-12-03T19:35:59.577Z,96484.22
2022-12-03T19:38:31.941Z,96490.44
2022-12-03T19:41:02.290Z,96484.13
2022-12-03T19:43:31.834Z,96484.50
2022-12-03T19:46:05.200Z,96478.75
2022-12-03T19:48:34.801Z,96492.13
2022-12-03T19:51:32.519Z,96500.78
2022-12-03T19:53:55.045Z,96473.78
2022-12-03T19:56:23.977Z,96494.09
2022-12-03T19:58:56.028Z,96488.16
2022-12-03T20:01:26.887Z,96486.09
2022-12-03T20:03:57.469Z,96479.03
2022-12-03T20:06:29.462Z,96478.50
2022-12-03T20:09:01.231Z,96480.28
2022-12-03T20:11:32.561Z,96480.56
2022-12-03T20:14:04.508Z,96482.50
2022-12-03T20:16:33.117Z,96481.31
2022-12-03T20:19:04.752Z,96481.31
2022-12-03T20:21:36.276Z,96470.59
2022-12-03T20:24:07.788Z,96478.13
2022-12-03T20:26:36.484Z,96467.22
2022-12-03T20:29:04.862Z,96471.91
2022-12-03T20:31:33.639Z,96470.38
2022-12-03T20:34:04.460Z,96472.50
2022-12-03T20:36:33.934Z,96485.03
2022-12-03T20:39:06.128Z,96483.44
2022-12-03T20:41:36.956Z,96469.91
2022-12-03T20:44:07.536Z,96474.09
2022-12-03T20:46:36.304Z,96476.94
2022-12-03T20:49:05.122Z,96474.06
2022-12-03T20:51:33.715Z,96483.50
2022-12-03T20:54:02.841Z,96467.44
2022-12-03T20:56:35.715Z,96473.59
2022-12-03T20:59:06.919Z,96474.19
2022-12-03T21:01:36.525Z,96471.19
2022-12-03T21:04:05.865Z,96457.81
2022-12-03T21:06:36.965Z,96451.06
2022-12-03T21:09:07.939Z,96458.94
2022-12-03T21:11:41.516Z,96459.34
2022-12-03T21:14:11.046Z,96456.34
2022-12-03T21:19:30.886Z,96471.47
2022-12-03T21:21:59.269Z,96465.41
2022-12-03T21:24:27.742Z,96464.03
2022-12-03T21:26:57.852Z,96473.78
2022-12-03T21:29:26.760Z,96465.72
2022-12-03T21:31:55.405Z,96464.16
2022-12-03T21:34:23.696Z,96447.91
2022-12-03T21:36:52.242Z,96444.00
2022-12-03T21:39:20.784Z,96448.47
2022-12-03T21:42:34.189Z,96458.84
2022-12-03T21:44:39.827Z,96461.53
2022-12-03T21:47:13.991Z,96457.03
2022-12-03T21:49:43.325Z,96463.53
2022-12-03T21:52:11.761Z,96468.00
2022-12-03T21:54:40.144Z,96459.41
2022-12-03T21:57:08.614Z,96460.97
2022-12-03T21:59:36.921Z,96451.69
2022-12-03T22:02:06.695Z,96455.56
2022-12-03T22:04:35.179Z,96462.97
2022-12-03T22:07:03.653Z,96453.97
2022-12-03T22:09:32.710Z,96452.03
2022-12-03T22:12:01.639Z,96447.81
2022-12-03T22:14:30.215Z,96440.81
2022-12-03T22:16:58.481Z,96452.06
2022-12-03T22:19:28.322Z,96451.84
2022-12-03T22:21:56.604Z,96447.59
2022-12-03T22:24:24.885Z,96455.88
2022-12-03T22:26:54.722Z,96464.00
2022-12-03T22:29:23.324Z,96448.31
2022-12-03T22:31:51.623Z,96452.13
2022-12-03T22:34:20.034Z,96445.44
2022-12-03T22:36:49.804Z,96440.38
2022-12-03T22:39:18.276Z,96460.75
2022-12-03T22:41:47.805Z,96449.44
2022-12-03T22:44:16.258Z,96449.75
2022-12-03T22:46:45.129Z,96446.03
2022-12-03T22:49:14.198Z,96449.50
2022-12-03T22:51:46.687Z,96443.75
2022-12-03T22:54:20.929Z,96437.78
2022-12-03T22:56:52.176Z,96436.19
2022-12-03T22:59:20.463Z,96427.31
2022-12-03T23:01:48.733Z,96424.78
2022-12-03T23:04:20.294Z,96435.38
2022-12-03T23:06:49.261Z,96440.16
2022-12-03T23:09:18.964Z,96430.28
2022-12-03T23:11:47.755Z,96422.88
2022-12-03T23:14:16.000Z,96424.13
2022-12-03T23:16:44.367Z,96416.56
2022-12-03T23:19:12.637Z,96424.50
2022-12-03T23:21:41.173Z,96418.00
2022-12-03T23:24:09.553Z,96417.03
2022-12-03T23:26:40.156Z,96422.09
2022-12-03T23:29:08.785Z,96412.81
2022-12-03T23:31:37.398Z,96412.38
2022-12-03T23:34:06.438Z,96409.22
2022-12-03T23:36:35.352Z,96415.72
2022-12-03T23:39:03.674Z,96413.97
2022-12-03T23:41:31.958Z,96421.00
2022-12-03T23:44:01.639Z,96421.03
2022-12-03T23:46:30.093Z,96420.28
2022-12-03T23:49:00.517Z,96425.44
2022-12-03T23:51:29.074Z,96416.69
2022-12-03T23:53:57.813Z,96417.69
2022-12-03T23:56:29.082Z,96422.34
2022-12-03T23:58:58.188Z,96408.94
